Time;durP1;ratioP1;P1;durP2;ratioP2;P2;SDS_P1;SDS_P2;PMS_P1;PMS_P2;Temp;Humidity;BMP_temperature;BMP_pressure;BME280_temperature;BME280_humidity;BME280_pressure;Samples;Min_cycle;Max_cycle;Signal;HPM_P1;HPM_P2
2021/07/26 00:02:07;;;;;;;5.03;3.27;;;16.20;50.60;;;;;;5073011;28;20868;-71
2021/07/26 00:04:32;;;;;;;3.10;2.53;;;16.30;50.50;;;;;;5073435;28;20642;-71
2021/07/26 00:06:58;;;;;;;4.37;3.30;;;16.30;50.30;;;;;;5055385;28;20206;-71
2021/07/26 00:09:23;;;;;;;4.50;2.67;;;16.30;50.10;;;;;;5072910;28;20713;-70
2021/07/26 00:11:49;;;;;;;3.03;2.60;;;16.30;50.10;;;;;;5073254;28;20654;-71
2021/07/26 00:14:14;;;;;;;3.40;2.77;;;16.40;50.20;;;;;;5073176;28;20197;-70
2021/07/26 00:16:40;;;;;;;3.30;2.50;;;16.40;49.60;;;;;;5072743;28;20182;-70
2021/07/26 00:19:05;;;;;;;3.37;3.07;;;16.40;49.50;;;;;;5073106;28;20205;-70
2021/07/26 00:21:31;;;;;;;3.07;2.20;;;16.40;49.50;;;;;;5054413;28;20236;-70
2021/07/26 00:23:56;;;;;;;4.17;3.20;;;16.30;49.90;;;;;;5054621;28;20182;-73
2021/07/26 00:26:24;;;;;;;3.80;2.93;;;16.40;50.10;;;;;;5073170;28;20204;-72
2021/07/26 00:28:50;;;;;;;4.83;3.33;;;16.40;49.90;;;;;;5054828;28;20181;-72
2021/07/26 00:31:16;;;;;;;3.37;2.53;;;16.40;49.80;;;;;;5072744;28;20444;-73
2021/07/26 00:34:07;;;;;;;6.00;2.43;;;16.40;49.50;;;;;;5072588;28;20280;-72
2021/07/26 00:36:34;;;;;;;4.90;2.93;;;16.40;49.10;;;;;;5072862;28;20174;-71
2021/07/26 00:39:00;;;;;;;3.43;2.77;;;16.30;49.20;;;;;;5072495;28;20415;-72
2021/07/26 00:41:25;;;;;;;3.90;2.67;;;16.30;49.20;;;;;;5073015;28;20423;-70
2021/07/26 00:43:51;;;;;;;3.77;2.60;;;16.30;49.40;;;;;;5072579;28;20650;-71
2021/07/26 00:46:16;;;;;;;6.20;3.70;;;16.30;49.60;;;;;;5072397;28;20212;-72
2021/07/26 00:48:44;;;;;;;2.77;2.33;;;16.30;49.70;;;;;;5072840;28;20170;-71
2021/07/26 00:51:09;;;;;;;4.37;2.90;;;16.30;49.40;;;;;;5076792;28;20224;-73
2021/07/26 00:53:35;;;;;;;5.90;3.27;;;16.30;49.20;;;;;;5072479;28;20726;-72
2021/07/26 00:56:01;;;;;;;9.60;3.53;;;16.40;49.00;;;;;;5072460;28;20264;-73
2021/07/26 00:58:27;;;;;;;4.27;2.63;;;16.40;48.70;;;;;;5072166;28;20228;-72
2021/07/26 01:00:52;;;;;;;3.63;2.63;;;16.50;48.60;;;;;;5073075;28;20452;-71
2021/07/26 01:03:18;;;;;;;6.90;3.40;;;16.50;48.50;;;;;;5073350;28;20185;-70
2021/07/26 01:05:43;;;;;;;3.27;2.77;;;16.50;49.00;;;;;;5073838;28;20655;-71
2021/07/26 01:08:09;;;;;;;4.77;3.23;;;16.60;47.70;;;;;;5055590;28;20178;-72
2021/07/26 01:10:35;;;;;;;2.73;2.40;;;16.60;48.00;;;;;;5055141;28;20201;-71
2021/07/26 01:13:00;;;;;;;3.77;2.97;;;16.60;48.10;;;;;;5073295;28;20188;-71
2021/07/26 01:15:26;;;;;;;4.20;2.13;;;16.60;48.40;;;;;;5056069;28;20226;-71
2021/07/26 01:18:22;;;;;;;3.70;2.60;;;16.70;47.30;;;;;;5074045;28;20253;-71
2021/07/26 01:20:50;;;;;;;4.10;3.30;;;16.70;47.30;;;;;;5073272;28;20210;-72
2021/07/26 01:23:16;;;;;;;2.50;2.23;;;16.70;47.40;;;;;;5072716;28;20643;-72
2021/07/26 01:25:41;;;;;;;4.23;3.17;;;16.70;47.30;;;;;;5073247;28;20444;-72
2021/07/26 01:28:07;;;;;;;2.70;2.00;;;16.70;47.30;;;;;;5055243;28;20170;-71
2021/07/26 01:30:33;;;;;;;5.13;3.00;;;16.80;47.40;;;;;;5072949;28;20194;-70
2021/07/26 01:32:58;;;;;;;4.73;3.00;;;16.80;47.40;;;;;;5072610;28;20601;-71
2021/07/26 01:35:24;;;;;;;5.50;3.97;;;16.80;47.40;;;;;;5072803;28;20506;-70
2021/07/26 01:37:50;;;;;;;5.40;2.67;;;16.80;47.20;;;;;;5073145;28;20201;-71
2021/07/26 01:40:16;;;;;;;3.47;2.97;;;16.90;47.00;;;;;;5072712;28;20241;-71
2021/07/26 01:42:42;;;;;;;4.80;2.87;;;16.90;46.60;;;;;;5072872;28;20178;-71
2021/07/26 01:45:09;;;;;;;4.63;3.27;;;16.90;46.30;;;;;;5054691;28;20556;-70
2021/07/26 01:47:40;;;;;;;6.03;3.30;;;16.90;46.50;;;;;;5071338;28;20404;-71
2021/07/26 01:50:12;;;;;;;4.07;3.20;;;16.90;46.50;;;;;;5071094;28;20410;-70
2021/07/26 01:52:38;;;;;;;5.00;2.40;;;16.90;46.40;;;;;;5071220;28;20527;-71
2021/07/26 01:55:04;;;;;;;3.60;2.77;;;16.90;46.70;;;;;;5071353;28;20469;-70
2021/07/26 01:57:31;;;;;;;4.87;2.70;;;16.90;46.80;;;;;;5053255;28;20539;-71
2021/07/26 01:59:57;;;;;;;3.70;3.03;;;16.90;47.40;;;;;;5070964;28;20420;-71
2021/07/26 02:02:23;;;;;;;3.97;3.20;;;16.80;47.40;;;;;;5071291;28;20970;-71
2021/07/26 02:04:50;;;;;;;4.03;2.83;;;16.80;47.40;;;;;;5053040;28;20428;-72
2021/07/26 02:07:16;;;;;;;4.17;2.87;;;16.80;47.40;;;;;;5052883;28;20468;-73
2021/07/26 02:09:42;;;;;;;4.00;2.87;;;16.80;47.40;;;;;;5052845;28;20425;-72
2021/07/26 02:12:08;;;;;;;3.80;2.87;;;16.70;47.30;;;;;;5053193;28;20428;-72
2021/07/26 02:14:33;;;;;;;4.13;2.30;;;16.70;47.30;;;;;;5052983;28;20180;-71
2021/07/26 02:16:59;;;;;;;4.40;2.50;;;16.70;47.30;;;;;;5052928;28;20181;-72
2021/07/26 02:19:24;;;;;;;5.57;2.80;;;16.80;47.40;;;;;;5070588;28;20200;-73
2021/07/26 02:21:51;;;;;;;4.63;2.90;;;16.90;47.30;;;;;;5110123;22;20224;-69
2021/07/26 02:24:17;;;;;;;3.20;2.30;;;16.90;46.90;;;;;;5114728;28;20200;-71
2021/07/26 02:26:43;;;;;;;3.23;2.20;;;16.90;46.40;;;;;;5115108;28;20445;-70
2021/07/26 02:29:08;;;;;;;4.30;2.97;;;16.90;46.40;;;;;;5114318;28;20417;-71
2021/07/26 02:31:34;;;;;;;3.33;2.60;;;16.90;46.40;;;;;;5114518;28;20244;-70
2021/07/26 02:34:00;;;;;;;3.30;2.27;;;17.00;46.10;;;;;;5112591;28;20236;-71
2021/07/26 02:36:25;;;;;;;3.40;3.10;;;17.00;46.00;;;;;;5114473;28;20464;-70
2021/07/26 02:38:51;;;;;;;4.53;2.80;;;17.00;45.90;;;;;;5114287;28;20540;-70
2021/07/26 02:41:16;;;;;;;11.13;3.17;;;17.00;46.00;;;;;;5114896;28;20275;-70
2021/07/26 02:43:42;;;;;;;3.27;2.23;;;17.00;46.20;;;;;;5114718;28;20529;-70
2021/07/26 02:46:09;;;;;;;4.33;2.93;;;17.00;46.10;;;;;;5116698;28;20192;-70
2021/07/26 02:48:36;;;;;;;3.13;2.70;;;17.00;46.50;;;;;;5117572;28;20186;-71
2021/07/26 02:51:02;;;;;;;3.07;2.50;;;17.00;46.60;;;;;;5118669;28;20438;-70
2021/07/26 02:53:28;;;;;;;5.20;3.50;;;17.00;46.30;;;;;;5118815;28;20467;-70
2021/07/26 02:55:54;;;;;;;3.10;2.80;;;17.10;46.30;;;;;;5117838;28;20903;-70
2021/07/26 02:58:22;;;;;;;4.13;2.40;;;17.10;45.80;;;;;;5120276;28;20172;-70
2021/07/26 03:00:48;;;;;;;3.17;2.27;;;17.10;45.70;;;;;;5119946;28;20390;-70
2021/07/26 03:03:14;;;;;;;4.23;2.80;;;17.00;45.80;;;;;;5120442;28;20418;-71
2021/07/26 03:05:40;;;;;;;3.57;3.00;;;17.10;45.50;;;;;;5122946;28;20588;-71
2021/07/26 03:08:06;;;;;;;2.97;2.27;;;17.10;45.30;;;;;;5120312;28;21049;-70
2021/07/26 03:10:31;;;;;;;4.43;2.97;;;17.10;45.50;;;;;;5118142;27;20169;-71
2021/07/26 03:12:57;;;;;;;3.60;2.67;;;17.10;46.40;;;;;;5117167;28;20625;-70
2021/07/26 03:15:23;;;;;;;3.47;2.87;;;17.20;45.60;;;;;;5117680;28;20186;-70
2021/07/26 03:17:49;;;;;;;5.07;2.93;;;17.20;45.80;;;;;;5118331;27;20168;-70
2021/07/26 03:20:15;;;;;;;5.07;3.00;;;17.10;46.50;;;;;;5117959;28;20410;-70
2021/07/26 03:23:05;;;;;;;2.80;2.10;;;17.00;47.70;;;;;;5117231;28;20475;-70
2021/07/26 03:25:32;;;;;;;3.93;2.50;;;17.00;46.80;;;;;;5118010;28;20540;-70
2021/07/26 03:27:59;;;;;;;3.20;2.17;;;17.00;47.40;;;;;;5117671;28;20437;-70
2021/07/26 03:30:25;;;;;;;2.70;2.00;;;17.00;48.00;;;;;;5117393;28;20422;-70
2021/07/26 03:32:51;;;;;;;3.90;2.63;;;17.00;47.50;;;;;;5117894;28;20759;-70
2021/07/26 03:35:18;;;;;;;3.17;2.67;;;17.00;47.60;;;;;;5117164;28;20453;-70
2021/07/26 03:37:44;;;;;;;3.90;3.20;;;17.00;47.60;;;;;;5118630;28;20411;-71
2021/07/26 03:40:10;;;;;;;4.77;3.20;;;17.00;47.00;;;;;;5117956;28;20469;-71
2021/07/26 03:42:36;;;;;;;2.80;2.50;;;17.00;46.60;;;;;;5098779;28;20464;-70
2021/07/26 03:45:04;;;;;;;3.03;2.40;;;17.00;46.10;;;;;;5097951;28;20415;-70
2021/07/26 03:47:30;;;;;;;3.40;2.20;;;17.10;45.80;;;;;;5096059;28;20455;-71
2021/07/26 03:49:56;;;;;;;3.07;2.47;;;17.20;45.60;;;;;;5097631;28;20430;-70
2021/07/26 03:52:21;;;;;;;3.37;2.50;;;17.20;45.10;;;;;;5097192;28;20201;-71
2021/07/26 03:54:47;;;;;;;4.63;3.40;;;17.30;44.90;;;;;;5105065;28;20226;-70
2021/07/26 03:57:13;;;;;;;5.90;2.47;;;17.30;44.70;;;;;;5117319;28;20187;-71
2021/07/26 03:59:39;;;;;;;2.73;2.50;;;17.30;44.30;;;;;;5118140;28;20195;-71
2021/07/26 04:02:04;;;;;;;3.90;2.63;;;17.30;44.40;;;;;;5118993;28;20441;-71
2021/07/26 04:04:30;;;;;;;3.57;2.77;;;17.50;43.80;;;;;;5118711;28;20454;-71
2021/07/26 04:07:01;;;;;;;8.73;3.43;;;17.50;43.20;;;;;;5116775;28;20213;-70
2021/07/26 04:09:36;;;;;;;3.70;3.10;;;17.60;43.10;;;;;;5117486;28;20180;-71
2021/07/26 04:12:03;;;;;;;6.13;2.83;;;17.60;43.00;;;;;;5117080;28;20433;-70
2021/07/26 04:14:31;;;;;;;2.70;2.10;;;17.70;43.00;;;;;;5118484;28;20705;-71
2021/07/26 04:16:56;;;;;;;3.00;2.70;;;17.70;43.00;;;;;;5118297;28;20415;-71
2021/07/26 04:19:22;;;;;;;3.17;2.80;;;17.70;43.10;;;;;;5118431;28;20426;-71
2021/07/26 04:21:48;;;;;;;3.10;2.43;;;17.70;43.00;;;;;;5117121;28;20223;-71
2021/07/26 04:24:14;;;;;;;3.50;3.20;;;17.70;43.00;;;;;;5117831;28;20413;-71
2021/07/26 04:26:39;;;;;;;4.60;2.30;;;17.80;43.10;;;;;;5116429;28;20466;-70
2021/07/26 04:29:05;;;;;;;3.37;2.50;;;17.80;42.70;;;;;;5116181;28;20168;-71
2021/07/26 04:31:30;;;;;;;4.40;2.90;;;17.90;42.30;;;;;;5117522;28;20193;-71
2021/07/26 04:33:56;;;;;;;5.77;2.90;;;18.00;42.00;;;;;;5117101;28;20172;-71
2021/07/26 04:36:21;;;;;;;5.70;2.53;;;18.00;41.80;;;;;;5117185;28;20702;-71
2021/07/26 04:38:47;;;;;;;5.53;2.90;;;18.00;41.60;;;;;;5117227;28;20180;-71
2021/07/26 04:41:13;;;;;;;3.70;2.30;;;18.10;41.50;;;;;;5116803;28;20209;-71
2021/07/26 04:43:38;;;;;;;3.57;2.80;;;18.20;41.30;;;;;;5117284;28;20172;-71
2021/07/26 04:46:05;;;;;;;2.50;2.30;;;18.30;40.80;;;;;;5117018;27;20881;-70
2021/07/26 04:48:31;;;;;;;2.90;2.57;;;18.40;40.20;;;;;;5116128;28;20230;-71
2021/07/26 04:50:56;;;;;;;3.10;2.53;;;18.50;39.40;;;;;;5116798;28;20441;-70
2021/07/26 04:53:22;;;;;;;4.23;2.30;;;18.60;39.00;;;;;;5120511;28;20934;-69
2021/07/26 04:55:48;;;;;;;2.50;2.30;;;18.70;39.10;;;;;;5117152;28;20173;-69
2021/07/26 04:58:13;;;;;;;3.50;2.87;;;18.70;39.10;;;;;;5116163;28;20230;-70
2021/07/26 05:00:39;;;;;;;8.77;2.60;;;18.70;39.10;;;;;;5117209;28;20204;-70
2021/07/26 05:03:08;;;;;;;3.30;2.63;;;18.70;38.70;;;;;;5117201;28;20176;-69
2021/07/26 05:05:38;;;;;;;2.83;2.53;;;18.70;38.70;;;;;;5114541;28;20703;-70
2021/07/26 05:08:03;;;;;;;6.67;3.43;;;18.70;38.70;;;;;;5115101;28;20449;-69
2021/07/26 05:10:29;;;;;;;4.53;3.10;;;18.60;38.60;;;;;;5115048;28;20406;-69
2021/07/26 05:12:55;;;;;;;8.37;3.90;;;18.50;39.60;;;;;;5115502;28;20169;-69
2021/07/26 05:15:21;;;;;;;4.67;4.13;;;18.40;40.20;;;;;;5114477;28;20172;-69
2021/07/26 05:17:46;;;;;;;5.43;4.00;;;18.40;40.00;;;;;;5115059;28;20954;-70
2021/07/26 05:20:12;;;;;;;7.00;4.67;;;18.40;40.30;;;;;;5114945;28;20168;-70
2021/07/26 05:22:39;;;;;;;7.50;4.33;;;18.40;40.20;;;;;;5115780;28;20204;-71
2021/07/26 05:25:06;;;;;;;6.33;3.90;;;18.40;40.30;;;;;;5117077;28;20788;-72
2021/07/26 05:27:31;;;;;;;6.60;4.17;;;18.40;40.30;;;;;;5115918;28;20461;-71
2021/07/26 05:29:57;;;;;;;6.47;3.70;;;18.40;40.40;;;;;;5116924;28;20783;-72
2021/07/26 05:32:22;;;;;;;8.40;3.77;;;18.40;40.10;;;;;;5116954;28;20673;-73
2021/07/26 05:34:49;;;;;;;4.53;3.90;;;18.40;40.00;;;;;;5115858;28;20263;-71
2021/07/26 05:37:15;;;;;;;6.30;4.00;;;18.50;40.10;;;;;;5116340;28;20593;-72
2021/07/26 05:39:40;;;;;;;3.57;2.87;;;19.00;40.00;;;;;;5114436;28;20850;-71
2021/07/26 05:42:08;;;;;;;6.70;3.93;;;20.20;36.00;;;;;;5114896;28;20477;-72
2021/07/26 05:44:38;;;;;;;5.90;3.77;;;21.70;30.70;;;;;;5117540;28;20183;-71
2021/07/26 05:47:03;;;;;;;4.97;4.20;;;23.20;27.00;;;;;;5115053;28;20469;-70
2021/07/26 05:49:29;;;;;;;9.20;4.00;;;24.60;24.10;;;;;;5117615;28;20411;-71
2021/07/26 05:51:54;;;;;;;4.60;4.20;;;25.70;21.30;;;;;;5117005;28;20212;-71
2021/07/26 05:54:20;;;;;;;6.10;4.60;;;26.80;19.80;;;;;;5116023;28;20184;-71
2021/07/26 05:56:47;;;;;;;5.40;5.00;;;27.60;17.40;;;;;;5115142;28;20214;-73
2021/07/26 05:59:12;;;;;;;5.97;5.07;;;27.40;17.30;;;;;;5113027;27;20173;-76
2021/07/26 06:01:47;;;;;;;6.57;6.00;;;27.60;17.00;;;;;;5111882;28;20775;-75
2021/07/26 06:04:21;;;;;;;5.60;5.10;;;27.60;16.30;;;;;;5111788;28;20179;-75
2021/07/26 06:06:48;;;;;;;6.83;6.23;;;27.60;16.50;;;;;;5113391;28;20556;-75
2021/07/26 06:09:14;;;;;;;9.40;6.57;;;28.00;16.50;;;;;;5111867;28;20442;-75
2021/07/26 06:11:41;;;;;;;7.40;6.60;;;28.40;14.80;;;;;;5113134;28;20957;-75
2021/07/26 06:14:07;;;;;;;7.10;6.60;;;28.40;16.10;;;;;;5112996;28;20407;-74
2021/07/26 06:16:33;;;;;;;6.87;6.40;;;28.40;15.50;;;;;;5112115;28;20809;-75
2021/07/26 06:19:00;;;;;;;6.70;6.10;;;28.10;14.50;;;;;;5111752;28;20414;-74
2021/07/26 06:21:26;;;;;;;7.23;6.73;;;28.30;15.40;;;;;;5111310;28;20827;-75
2021/07/26 06:23:52;;;;;;;10.67;7.07;;;28.80;13.80;;;;;;5112122;28;20470;-71
2021/07/26 06:26:20;;;;;;;7.13;6.67;;;29.00;14.40;;;;;;5114971;28;20877;-72
2021/07/26 06:28:46;;;;;;;12.23;7.27;;;29.40;13.30;;;;;;5115132;28;20707;-72
2021/07/26 06:31:12;;;;;;;8.60;7.93;;;30.10;12.50;;;;;;5114519;28;20573;-71
2021/07/26 06:33:37;;;;;;;8.70;8.20;;;30.80;10.90;;;;;;5115552;28;20183;-72
2021/07/26 06:36:04;;;;;;;9.83;8.77;;;30.90;10.70;;;;;;5114137;28;20180;-72
2021/07/26 06:38:29;;;;;;;8.80;8.30;;;31.10;10.80;;;;;;5112474;28;20549;-72
2021/07/26 06:40:55;;;;;;;9.13;8.57;;;31.00;10.20;;;;;;5113621;28;20446;-72
2021/07/26 06:43:21;;;;;;;8.90;8.40;;;31.30;10.70;;;;;;5114081;28;20216;-71
2021/07/26 06:45:46;;;;;;;10.70;10.00;;;31.10;10.00;;;;;;5112573;28;20208;-71
2021/07/26 06:48:12;;;;;;;9.20;8.70;;;30.90;10.30;;;;;;5113456;28;20180;-71
2021/07/26 06:50:39;;;;;;;10.80;10.20;;;30.20;11.00;;;;;;5113039;28;20197;-71
2021/07/26 06:53:06;;;;;;;10.63;9.93;;;29.10;12.60;;;;;;5112580;28;20189;-70
2021/07/26 06:55:31;;;;;;;10.20;9.70;;;28.50;12.90;;;;;;5112446;28;20950;-70
2021/07/26 06:57:57;;;;;;;10.67;10.00;;;28.00;14.90;;;;;;5113247;28;20463;-70
2021/07/26 07:00:22;;;;;;;10.87;9.80;;;27.60;15.10;;;;;;5114436;28;20246;-71
2021/07/26 07:02:50;;;;;;;10.47;9.67;;;27.70;15.10;;;;;;5113327;28;20618;-70
2021/07/26 07:05:16;;;;;;;9.90;9.40;;;27.80;15.30;;;;;;5093679;28;20184;-71
2021/07/26 07:07:41;;;;;;;9.90;9.40;;;28.30;15.20;;;;;;5109399;28;20467;-71
2021/07/26 07:10:07;;;;;;;10.33;9.73;;;28.00;15.10;;;;;;5093363;28;20181;-70
2021/07/26 07:12:33;;;;;;;10.70;10.10;;;27.80;16.40;;;;;;5091758;28;20205;-70
2021/07/26 07:14:58;;;;;;;11.00;10.30;;;27.80;16.40;;;;;;5103598;28;20177;-70
2021/07/26 07:17:24;;;;;;;9.70;9.20;;;27.80;16.40;;;;;;5111358;28;20197;-72
2021/07/26 07:19:49;;;;;;;10.33;9.77;;;28.00;16.80;;;;;;5109963;28;20185;-71
2021/07/26 07:22:21;;;;;;;11.10;10.50;;;28.40;16.00;;;;;;5109892;28;20219;-70
2021/07/26 07:24:47;;;;;;;10.47;9.97;;;28.40;15.10;;;;;;5104124;28;20205;-70
2021/07/26 07:27:13;;;;;;;11.93;11.33;;;28.60;15.20;;;;;;5088979;28;20712;-70
2021/07/26 07:29:39;;;;;;;11.93;10.83;;;29.20;13.90;;;;;;5088329;28;20442;-71
2021/07/26 07:32:05;;;;;;;11.00;10.60;;;30.10;14.10;;;;;;5109668;28;20204;-71
2021/07/26 07:34:31;;;;;;;12.23;11.63;;;30.60;12.40;;;;;;5114410;28;20672;-72
2021/07/26 07:36:58;;;;;;;11.87;11.37;;;31.40;11.90;;;;;;5106667;28;20438;-71
2021/07/26 07:39:25;;;;;;;12.00;11.40;;;31.90;11.00;;;;;;5099685;28;20204;-71
2021/07/26 07:41:51;;;;;;;12.40;11.90;;;32.30;10.60;;;;;;5111760;28;20625;-72
2021/07/26 07:44:17;;;;;;;12.33;11.70;;;32.80;8.80;;;;;;5102496;28;20466;-72
2021/07/26 07:46:42;;;;;;;13.43;12.53;;;33.40;7.20;;;;;;5112252;28;20470;-71
2021/07/26 07:49:08;;;;;;;12.67;12.10;;;34.10;7.40;;;;;;5111491;28;20279;-71
2021/07/26 07:51:34;;;;;;;13.37;12.57;;;34.10;6.40;;;;;;5113336;28;20276;-72
2021/07/26 07:54:00;;;;;;;14.53;13.83;;;34.30;6.60;;;;;;5111526;28;20267;-71
2021/07/26 07:56:26;;;;;;;14.30;13.50;;;34.40;6.60;;;;;;5112075;28;20184;-72
2021/07/26 07:58:54;;;;;;;15.27;14.60;;;34.30;6.60;;;;;;5111866;28;20494;-71
2021/07/26 08:01:28;;;;;;;15.03;14.43;;;34.20;6.10;;;;;;5113394;28;20196;-72
2021/07/26 08:03:53;;;;;;;14.80;14.20;;;34.50;5.40;;;;;;5112514;28;20526;-72
2021/07/26 08:06:19;;;;;;;15.03;14.43;;;34.70;5.20;;;;;;5113427;28;20862;-72
2021/07/26 08:08:44;;;;;;;15.93;15.23;;;34.90;5.30;;;;;;5113771;28;20267;-72
2021/07/26 08:11:13;;;;;;;16.73;16.03;;;34.80;4.90;;;;;;5114333;28;20206;-72
2021/07/26 08:13:39;;;;;;;16.90;16.20;;;34.40;5.20;;;;;;5115107;28;20261;-71
2021/07/26 08:16:06;;;;;;;17.83;16.90;;;34.40;5.00;;;;;;5113819;28;20442;-71
2021/07/26 08:18:31;;;;;;;17.60;16.80;;;34.40;4.90;;;;;;5113795;28;20430;-72
2021/07/26 08:20:57;;;;;;;16.93;15.93;;;34.60;4.90;;;;;;5133243;22;20844;-73
2021/07/26 08:23:23;;;;;;;17.60;16.80;;;34.70;5.20;;;;;;5085568;28;20614;-72
2021/07/26 08:25:48;;;;;;;17.73;17.03;;;34.90;4.50;;;;;;5087444;28;20236;-72
2021/07/26 08:28:14;;;;;;;18.60;17.60;;;35.30;4.10;;;;;;5089389;28;20188;-73
2021/07/26 08:30:40;;;;;;;18.57;17.67;;;35.70;3.30;;;;;;5086948;28;20189;-71
2021/07/26 08:33:06;;;;;;;18.40;17.70;;;35.10;4.40;;;;;;5033527;28;20219;-70
2021/07/26 08:35:36;;;;;;;18.47;17.67;;;35.30;4.20;;;;;;5068660;28;20428;-71
2021/07/26 08:38:04;;;;;;;18.40;17.70;;;35.70;3.20;;;;;;5068279;28;20424;-71
2021/07/26 08:40:30;;;;;;;19.27;18.40;;;35.90;3.50;;;;;;5067546;28;20807;-70
2021/07/26 08:43:02;;;;;;;20.20;19.10;;;35.80;3.30;;;;;;5069675;28;20821;-70
2021/07/26 08:45:28;;;;;;;19.90;18.90;;;35.10;3.90;;;;;;5070091;28;20881;-71
2021/07/26 08:47:57;;;;;;;19.10;18.30;;;34.00;4.40;;;;;;5051990;28;20511;-70
2021/07/26 08:50:24;;;;;;;18.70;17.90;;;33.70;6.20;;;;;;5069649;28;20424;-70
2021/07/26 08:52:50;;;;;;;19.77;18.87;;;33.80;3.60;;;;;;5068798;28;21204;-71
2021/07/26 08:55:18;;;;;;;19.40;18.60;;;33.80;4.00;;;;;;5068982;28;20488;-70
2021/07/26 08:57:45;;;;;;;20.37;19.37;;;33.60;3.90;;;;;;5069066;28;20428;-72
2021/07/26 09:00:16;;;;;;;19.23;18.43;;;33.10;5.70;;;;;;5068754;28;20501;-71
2021/07/26 09:02:41;;;;;;;20.87;19.70;;;32.30;6.20;;;;;;5071001;28;20440;-71
2021/07/26 09:05:08;;;;;;;19.00;18.20;;;31.60;8.00;;;;;;5073633;28;20416;-71
2021/07/26 09:07:38;;;;;;;18.33;17.63;;;30.80;8.30;;;;;;5054981;28;20210;-71
2021/07/26 09:10:18;;;;;;;19.27;17.90;;;29.90;9.30;;;;;;5073269;28;20417;-71
2021/07/26 09:12:45;;;;;;;18.07;17.27;;;29.50;10.90;;;;;;5073698;28;20431;-71
2021/07/26 09:15:17;;;;;;;17.90;17.20;;;28.90;11.30;;;;;;5073476;28;20467;-71
2021/07/26 09:17:45;;;;;;;18.13;17.23;;;28.60;10.90;;;;;;5073382;28;20473;-71
2021/07/26 09:20:12;;;;;;;18.13;17.33;;;28.50;12.80;;;;;;5072409;28;20447;-72
2021/07/26 09:22:41;;;;;;;17.33;16.43;;;28.60;11.40;;;;;;5063759;28;20522;-71
2021/07/26 09:25:20;;;;;;;16.90;16.20;;;28.60;12.90;;;;;;5068096;28;20490;-70
2021/07/26 09:27:59;;;;;;;16.67;15.80;;;28.50;12.50;;;;;;5087095;28;21015;-71
2021/07/26 09:30:36;;;;;;;17.90;17.10;;;28.20;12.60;;;;;;5070039;28;20432;-71
2021/07/26 09:33:03;;;;;;;17.13;16.40;;;27.70;12.40;;;;;;5070233;28;20451;-70
2021/07/26 09:35:29;;;;;;;16.00;15.10;;;27.30;12.20;;;;;;5069717;28;20436;-71
2021/07/26 09:38:06;;;;;;;16.70;16.10;;;27.20;14.10;;;;;;5072579;28;20423;-73
2021/07/26 09:40:33;;;;;;;17.93;16.87;;;27.30;12.20;;;;;;5058478;28;20226;-74
2021/07/26 09:43:25;;;;;;;17.57;16.47;;;27.30;14.30;;;;;;5067088;28;21125;-72
2021/07/26 09:45:54;;;;;;;17.43;16.60;;;27.50;13.30;;;;;;5067412;28;20475;-71
2021/07/26 09:48:29;;;;;;;17.20;16.20;;;27.70;12.40;;;;;;5071152;28;20408;-71
2021/07/26 09:50:56;;;;;;;18.03;17.03;;;27.80;12.40;;;;;;5069747;28;20423;-71
2021/07/26 09:53:27;;;;;;;18.00;17.20;;;27.90;12.50;;;;;;5070909;28;20412;-71
2021/07/26 09:55:58;;;;;;;17.23;16.47;;;28.00;12.60;;;;;;5070396;28;20789;-71
2021/07/26 09:58:38;;;;;;;16.53;15.83;;;28.00;12.40;;;;;;5070416;28;20432;-71
2021/07/26 10:01:05;;;;;;;16.67;15.87;;;27.80;12.30;;;;;;5070436;28;20777;-71
2021/07/26 10:03:31;;;;;;;17.83;16.57;;;27.50;12.60;;;;;;5070836;28;20418;-72
2021/07/26 10:05:59;;;;;;;16.53;15.83;;;27.30;12.20;;;;;;5069554;28;20565;-72
2021/07/26 10:08:27;;;;;;;16.53;15.83;;;27.30;13.00;;;;;;5070295;28;20438;-71
2021/07/26 10:10:53;;;;;;;16.40;15.80;;;27.30;12.60;;;;;;5069942;28;20408;-71
2021/07/26 10:13:20;;;;;;;17.20;16.40;;;27.40;12.70;;;;;;5069185;28;21066;-71
2021/07/26 10:15:48;;;;;;;16.40;15.70;;;27.30;13.00;;;;;;5055248;28;20432;-72
2021/07/26 10:18:14;;;;;;;15.67;15.03;;;27.30;13.40;;;;;;5070582;28;20945;-72
2021/07/26 10:20:45;;;;;;;16.07;15.37;;;27.30;13.80;;;;;;5068395;28;20421;-72
2021/07/26 10:23:19;;;;;;;16.30;15.67;;;27.30;14.10;;;;;;5069592;28;20460;-70
2021/07/26 10:25:58;;;;;;;17.87;16.63;;;27.20;13.00;;;;;;5052366;28;20455;-71
2021/07/26 10:28:28;;;;;;;14.63;14.03;;;27.10;13.30;;;;;;5070749;28;20447;-70
2021/07/26 10:30:53;;;;;;;15.70;15.10;;;27.20;14.60;;;;;;5069460;28;20982;-71
2021/07/26 10:33:22;;;;;;;15.77;15.07;;;27.30;13.30;;;;;;5070551;28;20404;-71
2021/07/26 10:35:55;;;;;;;16.33;15.63;;;27.20;12.60;;;;;;5069384;28;20555;-73
2021/07/26 10:38:43;;;;;;;15.83;15.13;;;27.20;12.70;;;;;;5052453;28;20515;-72
2021/07/26 10:41:09;;;;;;;14.90;14.30;;;27.40;13.10;;;;;;5052123;28;20432;-72
2021/07/26 10:43:55;;;;;;;15.23;14.53;;;27.40;14.40;;;;;;5070175;28;20409;-73
2021/07/26 10:46:21;;;;;;;16.80;16.00;;;27.50;14.30;;;;;;5070175;28;20495;-72
2021/07/26 10:48:53;;;;;;;16.40;15.70;;;27.60;13.00;;;;;;5069784;28;20447;-72
2021/07/26 10:51:38;;;;;;;16.30;15.50;;;27.70;15.20;;;;;;5069683;28;20202;-73
2021/07/26 10:54:05;;;;;;;17.43;16.50;;;27.60;13.20;;;;;;5070337;28;20439;-72
2021/07/26 10:57:02;;;;;;;16.80;16.00;;;27.50;13.50;;;;;;5070181;28;20948;-71
2021/07/26 10:59:51;;;;;;;17.00;16.20;;;27.40;12.30;;;;;;5068960;28;20447;-72
2021/07/26 11:02:33;;;;;;;17.47;16.77;;;27.50;13.60;;;;;;5070180;28;20436;-70
2021/07/26 11:05:19;;;;;;;17.73;17.00;;;27.30;12.20;;;;;;5069477;28;20451;-69
2021/07/26 11:07:44;;;;;;;18.47;17.03;;;27.00;12.60;;;;;;5072374;28;20999;-71
2021/07/26 11:10:49;;;;;;;17.70;16.90;;;26.90;13.70;;;;;;5073109;28;20463;-72
2021/07/26 11:13:16;;;;;;;17.20;16.47;;;26.80;14.20;;;;;;5073607;28;20264;-72
2021/07/26 11:15:51;;;;;;;15.90;15.20;;;26.50;14.80;;;;;;5067041;28;21191;-69
2021/07/26 11:18:47;;;;;;;15.43;14.60;;;26.40;15.50;;;;;;5073730;28;20925;-72
2021/07/26 11:21:17;;;;;;;14.93;14.23;;;26.60;16.30;;;;;;5069157;28;20470;-74
2021/07/26 11:23:50;;;;;;;14.90;14.23;;;27.00;16.30;;;;;;5073253;28;20459;-71
2021/07/26 11:26:21;;;;;;;16.67;15.97;;;27.50;14.70;;;;;;5074128;28;20535;-71
2021/07/26 11:28:50;;;;;;;17.20;16.30;;;27.90;13.90;;;;;;5072481;28;20425;-73
2021/07/26 11:31:26;;;;;;;16.40;15.70;;;28.30;14.00;;;;;;5055545;28;20439;-71
2021/07/26 11:33:53;;;;;;;17.20;16.50;;;28.60;11.90;;;;;;5073687;28;20464;-70
2021/07/26 11:36:19;;;;;;;20.47;19.03;;;28.50;12.20;;;;;;5074028;28;20412;-70
2021/07/26 11:38:59;;;;;;;18.53;17.73;;;28.40;11.70;;;;;;5073851;28;20412;-71
2021/07/26 11:41:25;;;;;;;17.33;16.63;;;28.20;12.10;;;;;;5074074;28;20440;-73
2021/07/26 11:43:51;;;;;;;17.47;16.67;;;27.90;13.10;;;;;;5075556;28;20439;-73
2021/07/26 11:46:17;;;;;;;18.03;17.07;;;27.80;13.70;;;;;;5074021;28;20470;-70
2021/07/26 11:48:42;;;;;;;17.60;16.80;;;27.70;13.00;;;;;;5073581;28;20408;-72
2021/07/26 11:51:32;;;;;;;17.03;16.23;;;27.60;14.10;;;;;;5092777;28;20201;-72
2021/07/26 11:54:08;;;;;;;16.57;15.77;;;27.70;13.90;;;;;;5094106;28;20677;-72
2021/07/26 11:56:36;;;;;;;16.93;16.23;;;27.90;15.40;;;;;;5078978;28;20428;-71
2021/07/26 11:59:23;;;;;;;17.00;16.30;;;28.00;13.80;;;;;;5073375;28;20444;-72
2021/07/26 12:01:53;;;;;;;16.87;16.17;;;28.10;14.20;;;;;;5079845;28;20466;-72
2021/07/26 12:04:19;;;;;;;17.80;16.80;;;28.10;13.10;;;;;;5093665;28;20407;-72
2021/07/26 12:06:55;;;;;;;16.33;15.53;;;28.00;13.00;;;;;;5093822;28;20549;-72
2021/07/26 12:09:22;;;;;;;17.20;16.40;;;27.70;14.60;;;;;;5083395;28;20511;-74
2021/07/26 12:11:48;;;;;;;16.60;15.90;;;27.60;13.60;;;;;;5072366;28;20448;-73
2021/07/26 12:14:32;;;;;;;17.20;16.23;;;27.40;15.10;;;;;;5073093;28;20426;-73
2021/07/26 12:17:01;;;;;;;16.53;15.83;;;27.30;15.70;;;;;;5072919;28;20177;-74
2021/07/26 12:19:28;;;;;;;17.27;16.47;;;27.20;14.20;;;;;;5071697;28;20452;-74
2021/07/26 12:21:55;;;;;;;15.63;15.03;;;27.00;14.60;;;;;;5054940;28;20462;-74
2021/07/26 12:24:43;;;;;;;16.23;15.60;;;26.90;15.10;;;;;;5073127;28;20506;-74
2021/07/26 12:27:09;;;;;;;15.60;14.90;;;26.60;15.70;;;;;;5073011;28;21179;-74
2021/07/26 12:29:34;;;;;;;15.30;14.60;;;26.40;16.30;;;;;;5072386;28;20423;-73
2021/07/26 12:32:04;;;;;;;15.07;14.37;;;26.20;15.80;;;;;;5072266;28;20271;-71
2021/07/26 12:34:30;;;;;;;14.30;13.70;;;26.10;16.90;;;;;;5073143;28;20178;-70
2021/07/26 12:37:06;;;;;;;15.07;14.37;;;25.90;17.40;;;;;;5073732;28;20426;-71
2021/07/26 12:39:39;;;;;;;15.37;14.60;;;25.80;16.90;;;;;;5089707;28;20189;-72
2021/07/26 12:42:23;;;;;;;14.90;14.30;;;25.70;16.80;;;;;;5093216;28;20517;-72
2021/07/26 12:44:49;;;;;;;14.60;13.80;;;25.60;16.70;;;;;;5093058;28;20419;-70